sensor_id;sensor_type;location;lat;lon;timestamp;temperature;humidity
52743;DHT22;55583;53.012;6.556;2023-08-20T00:00:18;15.20;99.90
52743;DHT22;55583;53.012;6.556;2023-08-20T00:02:46;15.20;99.90
52743;DHT22;55583;53.012;6.556;2023-08-20T00:05:12;15.20;99.90
52743;DHT22;55583;53.012;6.556;2023-08-20T00:07:39;15.10;99.90
52743;DHT22;55583;53.012;6.556;2023-08-20T00:10:05;15.10;99.90
52743;DHT22;55583;53.012;6.556;2023-08-20T00:12:31;15.10;99.90
52743;DHT22;55583;53.012;6.556;2023-08-20T00:14:59;15.10;99.90
52743;DHT22;55583;53.012;6.556;2023-08-20T00:17:30;15.10;99.90
52743;DHT22;55583;53.012;6.556;2023-08-20T00:19:56;15.00;99.90
52743;DHT22;55583;53.012;6.556;2023-08-20T00:22:23;15.00;99.90
52743;DHT22;55583;53.012;6.556;2023-08-20T00:24:50;15.00;99.90
52743;DHT22;55583;53.012;6.556;2023-08-20T00:27:18;15.00;99.90
52743;DHT22;55583;53.012;6.556;2023-08-20T00:29:44;15.00;99.90
52743;DHT22;55583;53.012;6.556;2023-08-20T00:32:09;15.00;99.90
52743;DHT22;55583;53.012;6.556;2023-08-20T00:34:35;15.00;99.90
52743;DHT22;55583;53.012;6.556;2023-08-20T00:37:02;14.90;99.90
52743;DHT22;55583;53.012;6.556;2023-08-20T00:39:31;14.90;99.90
52743;DHT22;55583;53.012;6.556;2023-08-20T00:41:57;15.00;99.90
52743;DHT22;55583;53.012;6.556;2023-08-20T00:44:23;14.90;99.90
52743;DHT22;55583;53.012;6.556;2023-08-20T00:46:49;14.80;99.90
52743;DHT22;55583;53.012;6.556;2023-08-20T00:49:16;14.80;99.90
52743;DHT22;55583;53.012;6.556;2023-08-20T00:51:42;14.90;99.90
52743;DHT22;55583;53.012;6.556;2023-08-20T00:54:08;14.70;99.90
52743;DHT22;55583;53.012;6.556;2023-08-20T00:56:35;14.70;99.90
52743;DHT22;55583;53.012;6.556;2023-08-20T00:59:01;14.70;99.90
52743;DHT22;55583;53.012;6.556;2023-08-20T01:01:26;14.70;99.90
52743;DHT22;55583;53.012;6.556;2023-08-20T01:03:52;14.60;99.90
52743;DHT22;55583;53.012;6.556;2023-08-20T01:09:05;14.70;99.90
52743;DHT22;55583;53.012;6.556;2023-08-20T01:11:38;14.70;99.90
52743;DHT22;55583;53.012;6.556;2023-08-20T01:14:17;14.70;99.90
52743;DHT22;55583;53.012;6.556;2023-08-20T01:16:43;14.70;99.90
52743;DHT22;55583;53.012;6.556;2023-08-20T01:19:19;14.60;99.90
52743;DHT22;55583;53.012;6.556;2023-08-20T01:30:11;14.50;99.90
52743;DHT22;55583;53.012;6.556;2023-08-20T01:32:38;14.50;99.90
52743;DHT22;55583;53.012;6.556;2023-08-20T01:35:13;14.50;99.90
52743;DHT22;55583;53.012;6.556;2023-08-20T01:37:39;14.40;99.90
52743;DHT22;55583;53.012;6.556;2023-08-20T01:40:07;14.40;99.90
52743;DHT22;55583;53.012;6.556;2023-08-20T01:42:35;14.40;99.90
52743;DHT22;55583;53.012;6.556;2023-08-20T01:45:00;14.40;99.90
52743;DHT22;55583;53.012;6.556;2023-08-20T01:47:26;14.40;99.90
52743;DHT22;55583;53.012;6.556;2023-08-20T01:49:51;14.40;99.90
52743;DHT22;55583;53.012;6.556;2023-08-20T01:52:17;14.40;99.90
52743;DHT22;55583;53.012;6.556;2023-08-20T01:54:43;14.40;99.90
52743;DHT22;55583;53.012;6.556;2023-08-20T01:57:08;14.30;99.90
52743;DHT22;55583;53.012;6.556;2023-08-20T01:59:35;14.30;99.90
52743;DHT22;55583;53.012;6.556;2023-08-20T02:02:00;14.30;99.90
52743;DHT22;55583;53.012;6.556;2023-08-20T02:04:26;14.30;99.90
52743;DHT22;55583;53.012;6.556;2023-08-20T02:06:52;14.30;99.90
52743;DHT22;55583;53.012;6.556;2023-08-20T02:09:17;14.30;99.90
52743;DHT22;55583;53.012;6.556;2023-08-20T02:11:45;14.30;99.90
52743;DHT22;55583;53.012;6.556;2023-08-20T02:14:10;14.30;99.90
52743;DHT22;55583;53.012;6.556;2023-08-20T02:16:36;14.30;99.90
52743;DHT22;55583;53.012;6.556;2023-08-20T02:19:02;14.30;99.90
52743;DHT22;55583;53.012;6.556;2023-08-20T02:21:29;14.30;99.90
52743;DHT22;55583;53.012;6.556;2023-08-20T02:23:54;14.20;99.90
52743;DHT22;55583;53.012;6.556;2023-08-20T02:26:20;14.30;99.90
52743;DHT22;55583;53.012;6.556;2023-08-20T02:28:45;14.20;99.90
52743;DHT22;55583;53.012;6.556;2023-08-20T02:31:11;14.40;99.90
52743;DHT22;55583;53.012;6.556;2023-08-20T02:33:37;14.20;99.90
52743;DHT22;55583;53.012;6.556;2023-08-20T02:36:03;14.20;99.90
52743;DHT22;55583;53.012;6.556;2023-08-20T02:38:29;14.20;99.90
52743;DHT22;55583;53.012;6.556;2023-08-20T02:40:55;14.20;99.90
52743;DHT22;55583;53.012;6.556;2023-08-20T02:43:21;14.20;99.90
52743;DHT22;55583;53.012;6.556;2023-08-20T02:45:46;14.20;99.90
52743;DHT22;55583;53.012;6.556;2023-08-20T02:48:13;14.20;99.90
52743;DHT22;55583;53.012;6.556;2023-08-20T02:50:39;14.20;99.90
52743;DHT22;55583;53.012;6.556;2023-08-20T02:53:05;14.20;99.90
52743;DHT22;55583;53.012;6.556;2023-08-20T02:55:31;14.20;99.90
52743;DHT22;55583;53.012;6.556;2023-08-20T02:57:57;14.20;99.90
52743;DHT22;55583;53.012;6.556;2023-08-20T03:00:23;14.20;99.90
52743;DHT22;55583;53.012;6.556;2023-08-20T03:02:48;14.20;99.90
52743;DHT22;55583;53.012;6.556;2023-08-20T03:05:14;14.20;99.90
52743;DHT22;55583;53.012;6.556;2023-08-20T03:07:40;14.20;99.90
52743;DHT22;55583;53.012;6.556;2023-08-20T03:10:06;14.20;99.90
52743;DHT22;55583;53.012;6.556;2023-08-20T03:12:32;14.10;99.90
52743;DHT22;55583;53.012;6.556;2023-08-20T03:14:58;14.10;99.90
52743;DHT22;55583;53.012;6.556;2023-08-20T03:17:24;14.10;99.90
52743;DHT22;55583;53.012;6.556;2023-08-20T03:19:56;14.10;99.90
52743;DHT22;55583;53.012;6.556;2023-08-20T03:22:23;14.10;99.90
52743;DHT22;55583;53.012;6.556;2023-08-20T03:24:48;14.00;99.90
52743;DHT22;55583;53.012;6.556;2023-08-20T03:27:15;14.00;99.90
52743;DHT22;55583;53.012;6.556;2023-08-20T03:29:40;14.00;99.90
52743;DHT22;55583;53.012;6.556;2023-08-20T03:32:06;14.10;99.90
52743;DHT22;55583;53.012;6.556;2023-08-20T03:34:32;14.00;99.90
52743;DHT22;55583;53.012;6.556;2023-08-20T03:36:57;14.10;99.90
52743;DHT22;55583;53.012;6.556;2023-08-20T03:39:23;14.00;99.90
52743;DHT22;55583;53.012;6.556;2023-08-20T03:41:50;14.00;99.90
52743;DHT22;55583;53.012;6.556;2023-08-20T03:44:16;13.90;99.90
52743;DHT22;55583;53.012;6.556;2023-08-20T03:46:41;13.90;99.90
52743;DHT22;55583;53.012;6.556;2023-08-20T03:49:07;13.90;99.90
52743;DHT22;55583;53.012;6.556;2023-08-20T03:51:32;13.90;99.90
52743;DHT22;55583;53.012;6.556;2023-08-20T03:53:58;13.90;99.90
52743;DHT22;55583;53.012;6.556;2023-08-20T03:56:24;13.90;99.90
52743;DHT22;55583;53.012;6.556;2023-08-20T03:58:50;13.80;99.90
52743;DHT22;55583;53.012;6.556;2023-08-20T04:01:16;13.80;99.90
52743;DHT22;55583;53.012;6.556;2023-08-20T04:03:41;13.80;99.90
52743;DHT22;55583;53.012;6.556;2023-08-20T04:06:07;13.80;99.90
52743;DHT22;55583;53.012;6.556;2023-08-20T04:08:32;14.00;99.90
52743;DHT22;55583;53.012;6.556;2023-08-20T04:10:58;13.80;99.90
52743;DHT22;55583;53.012;6.556;2023-08-20T04:13:24;13.70;99.90
52743;DHT22;55583;53.012;6.556;2023-08-20T04:15:50;13.70;99.90
52743;DHT22;55583;53.012;6.556;2023-08-20T04:18:16;13.70;99.90
52743;DHT22;55583;53.012;6.556;2023-08-20T04:20:42;13.70;99.90
52743;DHT22;55583;53.012;6.556;2023-08-20T04:23:07;13.60;99.90
52743;DHT22;55583;53.012;6.556;2023-08-20T04:25:33;13.60;99.90
52743;DHT22;55583;53.012;6.556;2023-08-20T04:27:59;13.70;99.90
52743;DHT22;55583;53.012;6.556;2023-08-20T04:30:24;13.70;99.90
52743;DHT22;55583;53.012;6.556;2023-08-20T04:32:50;13.70;99.90
52743;DHT22;55583;53.012;6.556;2023-08-20T04:35:16;13.70;99.90
52743;DHT22;55583;53.012;6.556;2023-08-20T04:37:41;13.70;99.90
52743;DHT22;55583;53.012;6.556;2023-08-20T04:40:07;13.80;99.90
52743;DHT22;55583;53.012;6.556;2023-08-20T04:42:33;13.70;99.90
52743;DHT22;55583;53.012;6.556;2023-08-20T04:44:59;13.60;99.90
52743;DHT22;55583;53.012;6.556;2023-08-20T04:47:25;13.60;99.90
52743;DHT22;55583;53.012;6.556;2023-08-20T04:49:50;13.70;99.90
52743;DHT22;55583;53.012;6.556;2023-08-20T04:52:16;13.70;99.90
52743;DHT22;55583;53.012;6.556;2023-08-20T04:54:42;13.60;99.90
52743;DHT22;55583;53.012;6.556;2023-08-20T04:57:07;13.60;99.90
52743;DHT22;55583;53.012;6.556;2023-08-20T04:59:33;13.70;99.90
52743;DHT22;55583;53.012;6.556;2023-08-20T05:01:58;13.70;99.90
52743;DHT22;55583;53.012;6.556;2023-08-20T05:04:24;13.70;99.90
52743;DHT22;55583;53.012;6.556;2023-08-20T05:06:50;13.80;99.90
52743;DHT22;55583;53.012;6.556;2023-08-20T05:09:15;13.80;99.90
52743;DHT22;55583;53.012;6.556;2023-08-20T05:11:41;13.80;99.90
52743;DHT22;55583;53.012;6.556;2023-08-20T05:14:07;13.90;99.90
52743;DHT22;55583;53.012;6.556;2023-08-20T05:16:33;13.90;99.90
52743;DHT22;55583;53.012;6.556;2023-08-20T05:18:59;13.90;99.90
52743;DHT22;55583;53.012;6.556;2023-08-20T05:21:24;13.90;99.90
52743;DHT22;55583;53.012;6.556;2023-08-20T05:23:50;14.00;99.90
52743;DHT22;55583;53.012;6.556;2023-08-20T05:26:16;14.00;99.90
52743;DHT22;55583;53.012;6.556;2023-08-20T05:28:41;14.10;99.90
52743;DHT22;55583;53.012;6.556;2023-08-20T05:31:07;14.10;99.90
52743;DHT22;55583;53.012;6.556;2023-08-20T05:33:32;14.40;99.90
52743;DHT22;55583;53.012;6.556;2023-08-20T05:35:59;14.30;99.90
52743;DHT22;55583;53.012;6.556;2023-08-20T05:38:25;14.40;99.90
52743;DHT22;55583;53.012;6.556;2023-08-20T05:40:50;14.40;99.90
52743;DHT22;55583;53.012;6.556;2023-08-20T05:43:16;14.50;99.90
52743;DHT22;55583;53.012;6.556;2023-08-20T05:45:42;14.50;99.90
52743;DHT22;55583;53.012;6.556;2023-08-20T05:48:08;14.60;99.90
52743;DHT22;55583;53.012;6.556;2023-08-20T05:50:33;14.70;99.90
52743;DHT22;55583;53.012;6.556;2023-08-20T05:53:00;14.90;99.90
52743;DHT22;55583;53.012;6.556;2023-08-20T05:55:26;15.10;99.90
52743;DHT22;55583;53.012;6.556;2023-08-20T05:57:52;15.40;99.90
52743;DHT22;55583;53.012;6.556;2023-08-20T06:00:17;15.70;99.90
52743;DHT22;55583;53.012;6.556;2023-08-20T06:02:43;16.00;99.90
52743;DHT22;55583;53.012;6.556;2023-08-20T06:05:09;16.30;99.90
52743;DHT22;55583;53.012;6.556;2023-08-20T06:07:35;16.70;99.90
52743;DHT22;55583;53.012;6.556;2023-08-20T06:10:01;17.00;99.90
52743;DHT22;55583;53.012;6.556;2023-08-20T06:12:27;17.30;99.90
52743;DHT22;55583;53.012;6.556;2023-08-20T06:14:52;17.70;99.90
52743;DHT22;55583;53.012;6.556;2023-08-20T06:17:18;18.00;99.90
52743;DHT22;55583;53.012;6.556;2023-08-20T06:19:44;18.40;99.90
52743;DHT22;55583;53.012;6.556;2023-08-20T06:22:10;18.70;99.90
52743;DHT22;55583;53.012;6.556;2023-08-20T06:24:36;19.00;99.90
52743;DHT22;55583;53.012;6.556;2023-08-20T06:27:01;19.10;99.90
52743;DHT22;55583;53.012;6.556;2023-08-20T06:29:27;19.10;99.90
52743;DHT22;55583;53.012;6.556;2023-08-20T06:31:53;18.90;99.90
52743;DHT22;55583;53.012;6.556;2023-08-20T06:34:18;18.70;99.90
52743;DHT22;55583;53.012;6.556;2023-08-20T06:36:44;18.60;99.90
52743;DHT22;55583;53.012;6.556;2023-08-20T06:39:10;18.40;99.90
52743;DHT22;55583;53.012;6.556;2023-08-20T06:41:36;18.20;99.90
52743;DHT22;55583;53.012;6.556;2023-08-20T06:44:02;18.20;99.90
52743;DHT22;55583;53.012;6.556;2023-08-20T06:46:28;18.10;99.90
52743;DHT22;55583;53.012;6.556;2023-08-20T06:48:54;18.00;99.90
52743;DHT22;55583;53.012;6.556;2023-08-20T06:51:20;17.90;99.90
52743;DHT22;55583;53.012;6.556;2023-08-20T06:53:47;17.80;99.90
52743;DHT22;55583;53.012;6.556;2023-08-20T06:56:13;17.80;99.90
52743;DHT22;55583;53.012;6.556;2023-08-20T06:58:39;17.70;99.90
52743;DHT22;55583;53.012;6.556;2023-08-20T07:01:05;17.70;99.90
52743;DHT22;55583;53.012;6.556;2023-08-20T07:03:41;17.70;99.90
52743;DHT22;55583;53.012;6.556;2023-08-20T07:06:08;17.70;99.90
52743;DHT22;55583;53.012;6.556;2023-08-20T07:08:39;17.70;99.90
52743;DHT22;55583;53.012;6.556;2023-08-20T07:11:06;17.70;99.90
52743;DHT22;55583;53.012;6.556;2023-08-20T07:13:32;17.80;99.90
52743;DHT22;55583;53.012;6.556;2023-08-20T07:15:57;17.90;99.90
52743;DHT22;55583;53.012;6.556;2023-08-20T07:18:23;18.00;99.90
52743;DHT22;55583;53.012;6.556;2023-08-20T07:20:50;18.00;99.90
52743;DHT22;55583;53.012;6.556;2023-08-20T07:23:16;18.00;99.90
52743;DHT22;55583;53.012;6.556;2023-08-20T07:25:42;18.10;99.90
52743;DHT22;55583;53.012;6.556;2023-08-20T07:28:08;18.10;99.90
52743;DHT22;55583;53.012;6.556;2023-08-20T07:30:35;18.10;99.90
52743;DHT22;55583;53.012;6.556;2023-08-20T07:33:01;18.20;99.90
52743;DHT22;55583;53.012;6.556;2023-08-20T07:35:27;18.30;99.90
52743;DHT22;55583;53.012;6.556;2023-08-20T07:37:53;18.30;99.90
52743;DHT22;55583;53.012;6.556;2023-08-20T07:40:19;18.50;99.90
52743;DHT22;55583;53.012;6.556;2023-08-20T07:42:45;18.90;99.90
52743;DHT22;55583;53.012;6.556;2023-08-20T07:45:11;18.90;99.90
52743;DHT22;55583;53.012;6.556;2023-08-20T07:47:37;18.90;99.90
52743;DHT22;55583;53.012;6.556;2023-08-20T07:50:04;18.90;99.90
52743;DHT22;55583;53.012;6.556;2023-08-20T07:52:30;18.90;99.90
52743;DHT22;55583;53.012;6.556;2023-08-20T07:54:56;19.00;99.90
52743;DHT22;55583;53.012;6.556;2023-08-20T07:57:22;18.90;99.90
52743;DHT22;55583;53.012;6.556;2023-08-20T07:59:52;19.00;99.90
52743;DHT22;55583;53.012;6.556;2023-08-20T08:02:18;19.00;99.90
52743;DHT22;55583;53.012;6.556;2023-08-20T08:04:44;19.00;99.90
52743;DHT22;55583;53.012;6.556;2023-08-20T08:07:10;19.00;99.90
52743;DHT22;55583;53.012;6.556;2023-08-20T08:09:36;19.00;99.90
52743;DHT22;55583;53.012;6.556;2023-08-20T08:12:03;19.10;99.90
52743;DHT22;55583;53.012;6.556;2023-08-20T08:14:30;19.10;99.90
52743;DHT22;55583;53.012;6.556;2023-08-20T08:16:56;19.10;99.90
52743;DHT22;55583;53.012;6.556;2023-08-20T08:19:22;19.20;99.90
52743;DHT22;55583;53.012;6.556;2023-08-20T08:21:48;19.20;99.90
52743;DHT22;55583;53.012;6.556;2023-08-20T08:24:14;19.30;99.90
52743;DHT22;55583;53.012;6.556;2023-08-20T08:26:41;19.30;99.90
52743;DHT22;55583;53.012;6.556;2023-08-20T08:29:07;19.40;99.90
52743;DHT22;55583;53.012;6.556;2023-08-20T08:31:34;19.40;99.90
52743;DHT22;55583;53.012;6.556;2023-08-20T08:34:01;19.60;99.90
52743;DHT22;55583;53.012;6.556;2023-08-20T08:36:27;19.60;99.90
52743;DHT22;55583;53.012;6.556;2023-08-20T08:38:53;19.80;99.90
52743;DHT22;55583;53.012;6.556;2023-08-20T08:41:22;19.90;99.90
52743;DHT22;55583;53.012;6.556;2023-08-20T08:43:51;19.90;99.90
52743;DHT22;55583;53.012;6.556;2023-08-20T08:46:17;20.00;99.90
52743;DHT22;55583;53.012;6.556;2023-08-20T08:48:44;20.10;99.90
52743;DHT22;55583;53.012;6.556;2023-08-20T08:51:12;20.20;99.90
52743;DHT22;55583;53.012;6.556;2023-08-20T08:53:38;20.30;99.90
52743;DHT22;55583;53.012;6.556;2023-08-20T08:56:04;20.30;99.90
52743;DHT22;55583;53.012;6.556;2023-08-20T08:58:32;20.40;99.90
52743;DHT22;55583;53.012;6.556;2023-08-20T09:00:58;20.50;99.90
52743;DHT22;55583;53.012;6.556;2023-08-20T09:03:24;20.60;99.90
52743;DHT22;55583;53.012;6.556;2023-08-20T09:06:00;20.70;99.90
52743;DHT22;55583;53.012;6.556;2023-08-20T09:08:29;21.00;99.90
52743;DHT22;55583;53.012;6.556;2023-08-20T09:10:56;21.60;99.90
52743;DHT22;55583;53.012;6.556;2023-08-20T09:15:58;22.00;99.90
52743;DHT22;55583;53.012;6.556;2023-08-20T09:18:24;22.00;99.90
52743;DHT22;55583;53.012;6.556;2023-08-20T09:20:49;22.00;99.90
52743;DHT22;55583;53.012;6.556;2023-08-20T09:23:16;22.10;99.90
52743;DHT22;55583;53.012;6.556;2023-08-20T09:25:42;22.20;99.90
52743;DHT22;55583;53.012;6.556;2023-08-20T09:28:08;22.20;99.90
52743;DHT22;55583;53.012;6.556;2023-08-20T09:30:34;22.40;99.90
52743;DHT22;55583;53.012;6.556;2023-08-20T09:33:12;22.60;99.90
52743;DHT22;55583;53.012;6.556;2023-08-20T09:35:49;22.80;99.90
52743;DHT22;55583;53.012;6.556;2023-08-20T09:38:15;23.20;99.90
52743;DHT22;55583;53.012;6.556;2023-08-20T09:40:44;24.60;99.90
52743;DHT22;55583;53.012;6.556;2023-08-20T09:43:11;26.70;96.70
52743;DHT22;55583;53.012;6.556;2023-08-20T09:45:39;28.50;90.10
52743;DHT22;55583;53.012;6.556;2023-08-20T09:48:07;30.20;80.60
52743;DHT22;55583;53.012;6.556;2023-08-20T09:50:35;31.30;74.00
52743;DHT22;55583;53.012;6.556;2023-08-20T09:53:12;31.00;71.30
52743;DHT22;55583;53.012;6.556;2023-08-20T09:55:41;30.20;71.30
52743;DHT22;55583;53.012;6.556;2023-08-20T09:58:08;30.40;72.60
52743;DHT22;55583;53.012;6.556;2023-08-20T10:00:35;30.50;69.70
52743;DHT22;55583;53.012;6.556;2023-08-20T10:03:01;29.90;70.10
52743;DHT22;55583;53.012;6.556;2023-08-20T10:05:28;30.00;71.40
52743;DHT22;55583;53.012;6.556;2023-08-20T10:07:55;31.00;68.80
52743;DHT22;55583;53.012;6.556;2023-08-20T10:10:21;32.00;66.40
52743;DHT22;55583;53.012;6.556;2023-08-20T10:12:46;33.10;65.40
52743;DHT22;55583;53.012;6.556;2023-08-20T10:15:14;34.10;63.90
52743;DHT22;55583;53.012;6.556;2023-08-20T10:17:45;34.70;61.80
52743;DHT22;55583;53.012;6.556;2023-08-20T10:20:13;35.20;60.80
52743;DHT22;55583;53.012;6.556;2023-08-20T10:22:41;34.60;59.40
52743;DHT22;55583;53.012;6.556;2023-08-20T10:25:08;34.20;59.70
52743;DHT22;55583;53.012;6.556;2023-08-20T10:27:36;34.50;59.60
52743;DHT22;55583;53.012;6.556;2023-08-20T10:30:08;35.50;59.80
52743;DHT22;55583;53.012;6.556;2023-08-20T10:32:54;36.20;55.00
52743;DHT22;55583;53.012;6.556;2023-08-20T10:38:06;36.70;56.00
52743;DHT22;55583;53.012;6.556;2023-08-20T10:43:26;37.00;54.10
52743;DHT22;55583;53.012;6.556;2023-08-20T10:46:14;37.50;53.30
52743;DHT22;55583;53.012;6.556;2023-08-20T10:48:42;37.80;51.20
52743;DHT22;55583;53.012;6.556;2023-08-20T10:51:12;38.00;53.90
52743;DHT22;55583;53.012;6.556;2023-08-20T10:53:40;37.60;53.30
52743;DHT22;55583;53.012;6.556;2023-08-20T10:56:16;37.60;53.70
52743;DHT22;55583;53.012;6.556;2023-08-20T10:58:47;37.10;52.30
52743;DHT22;55583;53.012;6.556;2023-08-20T11:01:23;37.10;54.40
52743;DHT22;55583;53.012;6.556;2023-08-20T11:03:50;37.30;51.10
52743;DHT22;55583;53.012;6.556;2023-08-20T11:06:17;37.60;52.30
52743;DHT22;55583;53.012;6.556;2023-08-20T11:08:43;37.80;51.80
52743;DHT22;55583;53.012;6.556;2023-08-20T11:11:10;38.50;51.90
52743;DHT22;55583;53.012;6.556;2023-08-20T11:13:36;39.10;50.60
52743;DHT22;55583;53.012;6.556;2023-08-20T11:16:03;39.20;51.10
52743;DHT22;55583;53.012;6.556;2023-08-20T11:18:33;39.10;50.80
52743;DHT22;55583;53.012;6.556;2023-08-20T11:21:00;38.00;49.80
52743;DHT22;55583;53.012;6.556;2023-08-20T11:23:26;37.20;50.40
52743;DHT22;55583;53.012;6.556;2023-08-20T11:25:53;36.90;50.90
52743;DHT22;55583;53.012;6.556;2023-08-20T11:28:18;36.80;51.30
52743;DHT22;55583;53.012;6.556;2023-08-20T11:30:45;37.00;50.90
52743;DHT22;55583;53.012;6.556;2023-08-20T11:33:11;37.20;51.60
52743;DHT22;55583;53.012;6.556;2023-08-20T11:35:37;37.70;50.50
52743;DHT22;55583;53.012;6.556;2023-08-20T11:38:03;38.00;50.50
52743;DHT22;55583;53.012;6.556;2023-08-20T11:40:29;38.50;50.10
52743;DHT22;55583;53.012;6.556;2023-08-20T11:42:55;38.80;49.80
52743;DHT22;55583;53.012;6.556;2023-08-20T11:45:21;39.10;50.20
52743;DHT22;55583;53.012;6.556;2023-08-20T11:47:47;39.30;49.80
52743;DHT22;55583;53.012;6.556;2023-08-20T11:50:12;38.90;50.10
52743;DHT22;55583;53.012;6.556;2023-08-20T11:52:38;38.50;49.80
52743;DHT22;55583;53.012;6.556;2023-08-20T11:55:05;37.70;50.10
52743;DHT22;55583;53.012;6.556;2023-08-20T11:57:31;37.20;50.60
52743;DHT22;55583;53.012;6.556;2023-08-20T12:00:04;37.10;50.90
52743;DHT22;55583;53.012;6.556;2023-08-20T12:02:34;37.70;50.90
52743;DHT22;55583;53.012;6.556;2023-08-20T12:04:59;38.10;49.60
52743;DHT22;55583;53.012;6.556;2023-08-20T12:07:29;38.10;50.20
52743;DHT22;55583;53.012;6.556;2023-08-20T12:09:55;38.00;50.10
52743;DHT22;55583;53.012;6.556;2023-08-20T12:12:21;37.40;50.90
52743;DHT22;55583;53.012;6.556;2023-08-20T12:14:47;37.80;50.90
52743;DHT22;55583;53.012;6.556;2023-08-20T12:17:22;38.00;50.40
52743;DHT22;55583;53.012;6.556;2023-08-20T12:19:48;38.40;49.90
52743;DHT22;55583;53.012;6.556;2023-08-20T12:22:13;38.40;50.80
52743;DHT22;55583;53.012;6.556;2023-08-20T12:24:39;38.40;50.50
52743;DHT22;55583;53.012;6.556;2023-08-20T12:27:05;38.00;50.00
52743;DHT22;55583;53.012;6.556;2023-08-20T12:29:30;37.10;50.40
52743;DHT22;55583;53.012;6.556;2023-08-20T12:31:56;36.90;50.90
52743;DHT22;55583;53.012;6.556;2023-08-20T12:34:22;36.90;50.60
52743;DHT22;55583;53.012;6.556;2023-08-20T12:36:49;36.70;50.90
52743;DHT22;55583;53.012;6.556;2023-08-20T12:39:15;36.70;51.10
52743;DHT22;55583;53.012;6.556;2023-08-20T12:41:41;36.60;50.70
52743;DHT22;55583;53.012;6.556;2023-08-20T12:44:06;36.60;50.60
52743;DHT22;55583;53.012;6.556;2023-08-20T12:46:32;36.90;51.70
52743;DHT22;55583;53.012;6.556;2023-08-20T12:48:58;36.90;50.50
52743;DHT22;55583;53.012;6.556;2023-08-20T12:51:24;36.00;50.60
52743;DHT22;55583;53.012;6.556;2023-08-20T12:53:49;35.20;51.40
52743;DHT22;55583;53.012;6.556;2023-08-20T12:56:15;34.90;52.00
52743;DHT22;55583;53.012;6.556;2023-08-20T12:58:41;34.70;52.30
52743;DHT22;55583;53.012;6.556;2023-08-20T13:01:07;34.60;52.40
52743;DHT22;55583;53.012;6.556;2023-08-20T13:03:33;35.00;52.70
52743;DHT22;55583;53.012;6.556;2023-08-20T13:05:59;35.00;52.30
52743;DHT22;55583;53.012;6.556;2023-08-20T13:08:25;35.00;52.10
52743;DHT22;55583;53.012;6.556;2023-08-20T13:10:55;34.80;52.10
52743;DHT22;55583;53.012;6.556;2023-08-20T13:13:22;34.50;52.70
52743;DHT22;55583;53.012;6.556;2023-08-20T13:15:50;34.40;52.80
52743;DHT22;55583;53.012;6.556;2023-08-20T13:18:16;34.50;53.90
52743;DHT22;55583;53.012;6.556;2023-08-20T13:20:42;34.60;53.30
52743;DHT22;55583;53.012;6.556;2023-08-20T13:23:09;34.70;53.40
52743;DHT22;55583;53.012;6.556;2023-08-20T13:25:34;34.90;52.80
52743;DHT22;55583;53.012;6.556;2023-08-20T13:28:00;35.00;52.70
52743;DHT22;55583;53.012;6.556;2023-08-20T13:30:26;35.20;52.20
52743;DHT22;55583;53.012;6.556;2023-08-20T13:32:51;35.20;51.90
52743;DHT22;55583;53.012;6.556;2023-08-20T13:35:17;35.30;52.80
52743;DHT22;55583;53.012;6.556;2023-08-20T13:37:43;35.00;51.90
52743;DHT22;55583;53.012;6.556;2023-08-20T13:40:09;34.80;51.10
52743;DHT22;55583;53.012;6.556;2023-08-20T13:42:36;34.40;51.30
52743;DHT22;55583;53.012;6.556;2023-08-20T13:45:02;34.10;52.10
52743;DHT22;55583;53.012;6.556;2023-08-20T13:47:29;33.90;52.20
52743;DHT22;55583;53.012;6.556;2023-08-20T13:49:54;33.90;52.30
52743;DHT22;55583;53.012;6.556;2023-08-20T13:52:20;34.00;52.80
52743;DHT22;55583;53.012;6.556;2023-08-20T13:54:46;34.30;52.50
52743;DHT22;55583;53.012;6.556;2023-08-20T13:57:12;34.60;52.80
52743;DHT22;55583;53.012;6.556;2023-08-20T13:59:37;34.80;52.70
52743;DHT22;55583;53.012;6.556;2023-08-20T14:02:04;34.90;52.10
52743;DHT22;55583;53.012;6.556;2023-08-20T14:04:30;35.00;50.60
52743;DHT22;55583;53.012;6.556;2023-08-20T14:06:56;35.10;50.90
52743;DHT22;55583;53.012;6.556;2023-08-20T14:09:22;35.10;51.10
52743;DHT22;55583;53.012;6.556;2023-08-20T14:11:47;35.00;49.70
52743;DHT22;55583;53.012;6.556;2023-08-20T14:14:13;34.90;50.70
52743;DHT22;55583;53.012;6.556;2023-08-20T14:16:39;34.80;51.40
52743;DHT22;55583;53.012;6.556;2023-08-20T14:19:05;34.20;50.20
52743;DHT22;55583;53.012;6.556;2023-08-20T14:21:31;33.90;50.60
52743;DHT22;55583;53.012;6.556;2023-08-20T14:23:56;33.90;51.20
52743;DHT22;55583;53.012;6.556;2023-08-20T14:26:22;34.10;52.50
52743;DHT22;55583;53.012;6.556;2023-08-20T14:28:48;34.50;52.10
52743;DHT22;55583;53.012;6.556;2023-08-20T14:31:14;34.70;51.90
52743;DHT22;55583;53.012;6.556;2023-08-20T14:33:39;34.80;51.50
52743;DHT22;55583;53.012;6.556;2023-08-20T14:36:05;34.70;51.90
52743;DHT22;55583;53.012;6.556;2023-08-20T14:38:31;34.40;51.10
52743;DHT22;55583;53.012;6.556;2023-08-20T14:41:03;34.00;51.20
52743;DHT22;55583;53.012;6.556;2023-08-20T14:43:29;33.90;51.60
52743;DHT22;55583;53.012;6.556;2023-08-20T14:45:56;33.70;51.60
52743;DHT22;55583;53.012;6.556;2023-08-20T14:48:22;33.70;51.00
52743;DHT22;55583;53.012;6.556;2023-08-20T14:50:49;33.70;51.70
52743;DHT22;55583;53.012;6.556;2023-08-20T14:53:14;33.80;51.80
52743;DHT22;55583;53.012;6.556;2023-08-20T14:55:40;34.00;51.80
52743;DHT22;55583;53.012;6.556;2023-08-20T14:58:06;34.30;51.70
52743;DHT22;55583;53.012;6.556;2023-08-20T15:00:32;34.40;51.40
52743;DHT22;55583;53.012;6.556;2023-08-20T15:02:58;34.50;51.60
52743;DHT22;55583;53.012;6.556;2023-08-20T15:05:24;34.50;52.00
52743;DHT22;55583;53.012;6.556;2023-08-20T15:07:49;34.30;52.10
52743;DHT22;55583;53.012;6.556;2023-08-20T15:10:15;33.90;52.40
52743;DHT22;55583;53.012;6.556;2023-08-20T15:12:41;33.80;52.50
52743;DHT22;55583;53.012;6.556;2023-08-20T15:15:07;33.70;52.80
52743;DHT22;55583;53.012;6.556;2023-08-20T15:17:36;33.50;53.10
52743;DHT22;55583;53.012;6.556;2023-08-20T15:20:06;33.20;53.90
52743;DHT22;55583;53.012;6.556;2023-08-20T15:22:35;33.10;54.20
52743;DHT22;55583;53.012;6.556;2023-08-20T15:25:00;32.80;54.50
52743;DHT22;55583;53.012;6.556;2023-08-20T15:27:26;32.70;55.30
52743;DHT22;55583;53.012;6.556;2023-08-20T15:29:52;32.90;55.70
52743;DHT22;55583;53.012;6.556;2023-08-20T15:32:17;32.80;55.10
52743;DHT22;55583;53.012;6.556;2023-08-20T15:34:43;32.60;54.70
52743;DHT22;55583;53.012;6.556;2023-08-20T15:37:09;32.10;55.60
52743;DHT22;55583;53.012;6.556;2023-08-20T15:39:35;31.40;56.50
52743;DHT22;55583;53.012;6.556;2023-08-20T15:42:01;31.20;58.10
52743;DHT22;55583;53.012;6.556;2023-08-20T15:44:27;31.30;57.50